Embarrass, Minnesota
Current Conditions -  °F | °C
As of 9:52 PM on Friday 24 Oct 2014 (Local Time) from KELO Reporting Station
Clear Clear  
Wind Chill: 59°   Ceiling: Unl
Heat Index: 59°   Visibility: 10mi
Dew Point: 37°   Wind: 10mph
Humidity: 45%   Direction: 260°W
Pressure: 29.7"   Gusts: 20mph
Location:  47.66°N, 92.2°W
Report Text: KELO 250252Z AUTO 26009G17KT 10SM CLR 15/03 A2970 RMK AO2
Loading
Personal Weather Stations






























Interactive Weather Map
Tropical Storm Tracking
New forecast layout! Learn more

10-Day Weather Forecast

Advertisements
Track Severe Weather on mobile